KBNA/BNA METAR and TAF weather

Enter ICAO airport designator
Station Type Date Time Source
KBNA METAR 2019/07/20 04:53 UTC NOAA

KBNA 200453Z 23003KT 10SM FEW250 28/22 A3002 RMK AO2 SLP158 T02780222


Station Type Date Time Source
KBNA Decoded METAR 2019/07/20 04:53 UTC NOAA

NASHVILLE INTERNATIONAL AIRPORT, TN, United States (KBNA) 36-07N 086-41W 210M
Jul 20, 2019 - 12:53 AM EDT / 2019.07.20 0453 UTC
Wind: from the SW (230 degrees) at 3 MPH (3 KT):0
Visibility: 10 mile(s):0
Sky conditions: mostly clear
Temperature: 82.0 F (27.8 C)
Dew Point: 72.0 F (22.2 C)
Relative Humidity: 71%
Pressure (altimeter): 30.02 in. Hg (1016 hPa)
ob: KBNA 200453Z 23003KT 10SM FEW250 28/22 A3002 RMK AO2 SLP158 T02780222
cycle: 5

Station Type Date Time Source
KBNA TAF 2019/07/20 06:22 UTC NOAA

TAF KBNA 200520Z 2006/2106 19004KT P6SM SKC
FM201600 19006KT P6SM SCT050 PROB30 2019/2024 4SM TSRA OVC050CB

Example: see airport list